.
WxDataArchive / Data Records for 2007-04-03
2007-04-02 April 2007 2007-04-04

Data Records for Tuesday, 03 April 2007

Time	Temp	Chill	HIndex	Humid	Dewpt	 Wind 	HiWind	WindDir	Rain 	Barom 
-----	----	-----	------	-----	-----	------	------	-------	-----	----- 
00:00	46.5	46.5	46.5	84	41.9	0	0	---	0.00	29.959 
00:05	46.5	46.5	46.5	84	41.9	0	0	---	0.00	29.957 
00:10	46.4	46.4	46.4	83	41.5	0	0	---	0.00	29.956 
00:15	46.4	46.4	46.4	83	41.5	0	0	---	0.00	29.956 
00:20	46.2	46.2	46.2	83	41.3	0	0	---	0.00	29.956 
00:25	46.1	46.1	46.1	83	41.2	0	0	---	0.00	29.953 
00:30	46.0	46.0	46.0	83	41.1	0	0	---	0.00	29.950 
00:35	46.0	46.0	46.0	83	41.1	0	0	---	0.00	29.945 
00:40	46.0	46.0	46.0	83	41.1	0	0	---	0.00	29.941 
00:45	46.0	46.0	46.0	83	41.1	0	0	---	0.00	29.941 
00:50	46.0	46.0	46.0	83	41.1	0	0	---	0.00	29.940 
00:55	46.0	46.0	46.0	83	41.1	0	1	270	0.00	29.939 
01:00	46.1	46.1	46.1	83	41.2	0	1	270	0.00	29.939 
01:05	46.5	46.5	46.5	82	41.3	0	1	270	0.00	29.936 
01:10	47.0	47.0	47.0	81	41.5	0	0	---	0.00	29.933 
01:15	47.1	47.1	47.1	81	41.6	0	0	---	0.00	29.932 
01:20	47.0	47.0	47.0	81	41.5	0	0	---	0.00	29.929 
01:25	47.0	47.0	47.0	81	41.5	0	0	---	0.00	29.925 
01:30	46.8	46.8	46.8	81	41.3	0	0	---	0.00	29.924 
01:35	46.7	46.7	46.7	81	41.2	0	0	---	0.00	29.924 
01:40	46.5	46.5	46.5	82	41.3	0	0	---	0.00	29.924 
01:45	46.4	46.4	46.4	82	41.2	0	0	---	0.00	29.923 
01:50	46.2	46.2	46.2	82	41.0	0	0	---	0.00	29.923 
01:55	46.2	46.2	46.2	83	41.3	0	1	270	0.00	29.920 
02:00	46.5	46.5	46.5	82	41.3	0	1	270	0.00	29.920 
02:05	46.8	46.8	46.8	82	41.6	0	1	270	0.00	29.917 
02:10	47.1	47.1	47.1	81	41.6	0	0	---	0.00	29.918 
02:15	47.3	47.3	47.3	81	41.8	0	1	270	0.00	29.919 
02:20	47.3	47.3	47.3	81	41.8	0	0	---	0.00	29.921 
02:25	47.4	47.4	47.4	81	41.9	0	2	270	0.00	29.921 
02:30	47.6	47.6	47.6	81	42.1	0	3	270	0.00	29.920 
02:35	47.7	47.7	47.7	81	42.2	0	0	---	0.00	29.920 
02:40	48.0	48.0	48.0	81	42.5	0	1	270	0.00	29.920 
02:45	48.3	48.3	48.3	81	42.7	0	1	270	0.00	29.920 
02:50	48.8	48.8	48.8	80	42.9	1	4	90	0.00	29.920 
02:55	49.2	49.2	49.2	79	43.0	2	4	112	0.00	29.922 
03:00	49.4	49.4	49.4	79	43.2	1	4	135	0.00	29.922 
03:05	49.6	49.6	49.6	78	43.0	1	3	112	0.00	29.919 
03:10	49.8	49.8	49.8	78	43.2	1	3	112	0.00	29.918 
03:15	49.9	49.9	49.9	77	43.0	2	4	112	0.00	29.917 
03:20	49.9	49.9	49.9	77	43.0	2	5	112	0.00	29.914 
03:25	49.9	49.9	49.9	77	43.0	2	6	90	0.00	29.911 
03:30	49.8	49.8	49.8	77	42.9	1	3	112	0.00	29.908 
03:35	49.6	49.6	49.6	77	42.7	1	3	90	0.00	29.908 
03:40	49.4	49.4	49.4	78	42.8	1	4	90	0.00	29.906 
03:45	49.2	49.2	49.2	78	42.6	1	4	90	0.00	29.905 
03:50	49.1	49.1	49.1	79	42.9	0	1	90	0.00	29.905 
03:55	48.8	48.8	48.8	79	42.6	0	1	90	0.00	29.904 
04:00	48.6	48.6	48.6	80	42.7	1	3	90	0.00	29.905 
04:05	48.9	48.9	48.9	79	42.7	1	3	90	0.00	29.909 
04:10	49.2	49.2	49.2	78	42.6	0	2	90	0.00	29.911 
04:15	49.5	49.5	49.5	78	42.9	1	3	112	0.00	29.908 
04:20	49.6	49.6	49.6	77	42.7	0	2	112	0.00	29.907 
04:25	49.9	49.9	49.9	77	43.0	1	2	112	0.00	29.906 
04:30	50.1	50.1	50.1	76	42.8	2	4	112	0.00	29.905 
04:35	50.1	50.1	50.1	75	42.5	1	2	90	0.00	29.906 
04:40	49.9	49.9	49.9	76	42.6	1	2	90	0.00	29.905 
04:45	49.8	49.8	49.8	76	42.5	1	3	90	0.00	29.902 
04:50	49.5	49.5	49.5	76	42.3	1	3	90	0.00	29.900 
04:55	49.4	49.4	49.4	76	42.2	1	3	90	0.00	29.898 
05:00	49.2	49.2	49.2	76	42.0	1	3	112	0.00	29.895 
05:05	49.1	49.1	49.1	76	41.9	1	3	90	0.00	29.894 
05:10	48.8	48.8	48.8	77	41.9	1	3	90	0.00	29.896 
05:15	48.6	48.6	48.6	77	41.7	1	2	90	0.00	29.896 
05:20	48.3	48.3	48.3	77	41.4	0	2	90	0.00	29.898 
05:25	48.2	48.2	48.2	77	41.3	1	3	90	0.00	29.894 
05:30	48.0	48.0	48.0	77	41.1	2	3	90	0.00	29.892 
05:35	48.0	48.0	48.0	77	41.1	2	4	90	0.00	29.891 
05:40	48.0	48.0	48.0	78	41.5	1	4	90	0.00	29.890 
05:45	48.0	48.0	48.0	78	41.5	1	4	90	0.00	29.889 
05:50	48.0	48.0	48.0	78	41.5	1	3	135	0.00	29.889 
05:55	48.0	48.0	48.0	78	41.5	2	7	112	0.00	29.886 
06:00	48.0	48.0	48.0	78	41.5	2	5	90	0.00	29.886 
06:05	47.9	47.9	47.9	78	41.4	1	3	112	0.00	29.888 
06:10	47.7	47.7	47.7	79	41.5	1	3	112	0.00	29.884 
06:15	47.6	47.6	47.6	79	41.4	0	2	112	0.00	29.890 
06:20	47.3	47.3	47.3	80	41.4	0	1	112	0.00	29.890 
06:25	47.1	47.1	47.1	81	41.6	0	2	112	0.00	29.881 
06:30	47.0	47.0	47.0	81	41.5	1	3	112	0.00	29.878 
06:35	47.1	47.1	47.1	81	41.6	2	4	90	0.00	29.877 
06:40	47.1	47.1	47.1	81	41.6	1	4	112	0.00	29.877 
06:45	47.1	47.1	47.1	81	41.6	2	5	90	0.00	29.874 
06:50	47.0	47.0	47.0	81	41.5	1	4	90	0.00	29.872 
06:55	47.0	47.0	47.0	81	41.5	1	4	90	0.00	29.867 
07:00	47.0	47.0	47.0	81	41.5	1	6	112	0.00	29.869 
07:05	47.3	47.3	47.3	81	41.8	1	6	112	0.00	29.877 
07:10	47.4	47.4	47.4	80	41.5	2	5	112	0.00	29.879 
07:15	47.6	47.6	47.6	80	41.7	2	3	135	0.00	29.879 
07:20	47.6	47.6	47.6	79	41.4	2	6	112	0.00	29.877 
07:25	47.7	47.7	47.7	79	41.5	2	5	112	0.00	29.881 
07:30	47.6	47.6	47.6	79	41.4	2	5	90	0.00	29.881 
07:35	47.6	47.6	47.6	79	41.4	3	5	90	0.00	29.878 
07:40	47.6	47.6	47.6	80	41.7	1	4	112	0.00	29.872 
07:45	47.7	47.7	47.7	80	41.8	1	4	112	0.00	29.872 
07:50	47.9	47.9	47.9	80	42.0	1	5	135	0.00	29.869 
07:55	48.3	48.3	48.3	79	42.1	1	4	112	0.00	29.868 
08:00	48.9	48.9	48.9	78	42.3	2	5	112	0.00	29.870 
08:05	49.2	49.2	49.2	78	42.6	3	5	112	0.00	29.874 
08:10	49.6	49.6	49.6	78	43.0	2	4	90	0.00	29.873 
08:15	49.9	49.9	49.9	77	43.0	3	5	112	0.00	29.875 
08:20	50.4	50.4	50.4	76	43.1	2	5	135	0.00	29.878 
08:25	50.8	50.8	50.8	77	43.9	2	3	90	0.00	29.875 
08:30	51.4	51.4	51.4	75	43.7	2	4	112	0.00	29.873 
08:35	51.9	51.9	51.9	75	44.2	2	7	90	0.00	29.868 
08:40	52.3	52.3	52.3	74	44.3	3	5	90	0.00	29.868 
08:45	53.2	53.2	53.2	73	44.8	2	4	90	0.00	29.865 
08:50	53.9	53.9	53.9	72	45.1	3	5	112	0.00	29.860 
08:55	55.0	55.0	55.0	71	45.8	3	5	112	0.00	29.851 
09:00	56.2	56.2	56.2	67	45.4	2	4	112	0.00	29.847 
09:05	57.3	57.3	57.3	66	46.0	2	5	112	0.00	29.845 
09:10	58.6	58.6	58.6	65	46.9	2	4	112	0.00	29.840 
09:15	59.6	59.6	59.6	65	47.8	1	3	135	0.00	29.845 
09:20	60.4	60.4	60.4	62	47.3	2	6	112	0.00	29.842 
09:25	61.2	61.2	61.2	62	48.1	1	3	90	0.00	29.842 
09:30	62.4	62.4	62.4	60	48.3	1	3	0	0.00	29.838 
09:35	63.7	63.7	63.7	60	49.5	1	4	135	0.00	29.832 
09:40	64.7	64.7	64.7	60	50.5	1	3	270	0.00	29.828 
09:45	65.5	65.5	65.5	59	50.8	1	3	338	0.00	29.825 
09:50	66.4	66.4	66.4	58	51.2	1	4	135	0.00	29.820 
09:55	67.4	67.4	67.4	58	52.1	1	3	22	0.00	29.818 
10:00	68.1	68.1	68.1	57	52.3	2	5	45	0.00	29.812 
10:05	68.9	68.9	68.9	59	54.0	2	10	248	0.00	29.809 
10:10	69.8	69.8	69.8	55	52.9	4	11	248	0.00	29.807 
10:15	70.4	70.4	70.4	56	53.9	3	8	248	0.00	29.807 
10:20	71.1	71.1	71.1	53	53.1	5	14	248	0.00	29.804 
10:25	71.5	71.5	71.5	54	54.0	5	14	248	0.00	29.801 
10:30	72.0	72.0	72.0	52	53.4	5	10	248	0.00	29.803 
10:35	72.3	72.3	72.3	51	53.1	6	12	248	0.00	29.801 
10:40	72.5	72.5	72.5	54	54.9	6	18	248	0.00	29.800 
10:45	72.7	72.7	72.7	52	54.0	5	12	270	0.00	29.793 
10:50	72.7	72.7	72.7	50	53.0	5	15	248	0.00	29.789 
10:55	73.2	73.2	73.2	54	55.5	4	11	270	0.00	29.787 
11:00	73.7	73.7	73.7	51	54.4	4	12	248	0.00	29.783 
11:05	74.0	74.0	74.0	50	54.2	5	11	270	0.00	29.777 
11:10	74.2	74.2	74.2	50	54.3	6	14	270	0.00	29.777 
11:15	74.7	74.7	74.7	51	55.4	4	13	248	0.00	29.776 
11:20	75.4	75.4	77.8	49	54.9	4	13	270	0.00	29.777 
11:25	75.8	75.8	77.9	47	54.1	5	11	248	0.00	29.781 
11:30	75.4	75.4	77.8	47	53.7	4	11	248	0.00	29.774 
11:35	75.4	75.4	77.8	47	53.7	5	12	248	0.00	29.774 
11:40	75.3	75.3	77.7	47	53.7	7	14	248	0.00	29.772 
11:45	75.1	75.1	77.7	48	54.1	5	12	270	0.00	29.773 
11:50	74.7	74.7	74.7	47	53.1	5	15	270	0.00	29.775 
11:55	74.6	74.6	74.6	49	54.2	3	6	248	0.00	29.773 
12:00	74.6	74.6	74.6	48	53.6	4	11	248	0.00	29.775 
12:05	74.2	74.2	74.2	49	53.8	5	13	270	0.00	29.775 
12:10	74.2	74.2	74.2	49	53.8	5	14	270	0.00	29.781 
12:15	74.0	74.0	74.0	50	54.2	6	13	248	0.00	29.779 
12:20	73.9	73.9	73.9	50	54.1	5	11	248	0.00	29.780 
12:25	74.0	74.0	74.0	50	54.2	6	14	270	0.00	29.779 
12:30	74.6	74.6	74.6	52	55.8	4	11	248	0.00	29.773 
12:35	75.3	75.3	77.7	51	55.9	4	11	248	0.00	29.770 
12:40	75.1	75.1	77.7	49	54.6	5	12	248	0.00	29.770 
12:45	74.6	74.6	74.6	50	54.7	4	10	248	0.00	29.763 
12:50	75.1	75.1	77.6	52	56.3	3	10	248	0.00	29.765 
12:55	75.1	75.1	77.7	51	55.7	3	6	270	0.00	29.759 
13:00	75.1	75.1	77.6	53	56.8	3	8	248	0.00	29.758 
13:05	75.3	75.3	77.7	51	55.9	4	10	248	0.00	29.756 
13:10	75.3	75.3	77.7	50	55.4	5	12	270	0.00	29.754 
13:15	75.4	75.4	77.8	51	56.0	4	11	248	0.00	29.751 
13:20	75.3	75.3	77.7	50	55.4	5	13	248	0.00	29.745 
13:25	74.9	74.9	74.9	50	55.0	5	12	248	0.00	29.740 
13:30	74.6	74.6	74.6	50	54.7	5	13	248	0.00	29.735 
13:35	74.4	74.4	74.4	51	55.1	5	11	248	0.00	29.728 
13:40	74.2	74.2	74.2	51	54.9	6	17	270	0.00	29.725 
13:45	74.0	74.0	74.0	52	55.2	5	12	248	0.00	29.723 
13:50	73.9	73.9	73.9	52	55.1	5	13	248	0.00	29.720 
13:55	74.0	74.0	74.0	52	55.2	3	10	225	0.00	29.717 
14:00	73.9	73.9	73.9	53	55.7	4	10	248	0.00	29.713 
14:05	73.5	73.5	73.5	52	54.8	7	14	248	0.00	29.710 
14:10	73.3	73.3	73.3	54	55.6	5	12	248	0.00	29.711 
14:15	73.3	73.3	73.3	53	55.1	5	13	248	0.00	29.710 
14:20	73.2	73.2	73.2	53	55.0	5	12	248	0.00	29.710 
14:25	73.0	73.0	73.0	52	54.3	3	10	248	0.00	29.709 
14:30	73.2	73.2	73.2	52	54.5	3	6	248	0.00	29.707 
14:35	73.2	73.2	73.2	50	53.4	5	14	270	0.00	29.703 
14:40	72.8	72.8	72.8	51	53.6	4	11	248	0.00	29.695 
14:45	72.7	72.7	72.7	50	53.0	4	13	248	0.00	29.696 
14:50	72.5	72.5	72.5	49	52.2	5	10	248	0.00	29.700 
14:55	72.5	72.5	72.5	48	51.7	5	11	270	0.00	29.697 
15:00	72.0	72.0	72.0	48	51.2	4	7	248	0.00	29.699 
15:05	71.6	71.6	71.6	50	52.0	4	11	248	0.00	29.699 
15:10	71.1	71.1	71.1	48	50.4	6	15	248	0.00	29.708 
15:15	70.6	70.6	70.6	50	51.0	7	14	248	0.00	29.701 
15:20	69.8	69.8	69.8	53	51.9	4	11	225	0.00	29.699 
15:25	69.1	69.1	69.1	52	50.7	6	13	248	0.00	29.705 
15:30	68.8	68.8	68.8	52	50.4	5	12	248	0.00	29.699 
15:35	68.3	68.3	68.3	55	51.5	6	17	248	0.00	29.700 
15:40	67.6	67.6	67.6	59	52.8	5	17	248	0.00	29.700 
15:45	66.9	66.9	66.9	60	52.6	6	13	270	0.00	29.698 
15:50	66.4	66.4	66.4	61	52.5	4	11	248	0.00	29.696 
15:55	65.8	65.8	65.8	63	52.8	5	12	248	0.00	29.700 
16:00	65.0	65.0	65.0	66	53.4	5	14	248	0.01	29.699 
16:05	64.0	64.0	64.0	71	54.4	4	16	270	0.00	29.699 
16:10	63.4	63.4	63.4	74	55.0	4	12	270	0.01	29.690 
16:15	62.9	62.9	62.9	76	55.2	3	9	90	0.00	29.683 
16:20	62.7	62.7	62.7	76	55.0	5	14	90	0.01	29.669 
16:25	62.6	62.6	62.6	75	54.6	4	10	90	0.00	29.668 
16:30	62.7	62.7	62.7	76	55.0	3	9	112	0.00	29.679 
16:35	62.9	62.9	62.9	75	54.8	4	7	112	0.00	29.672 
16:40	63.1	63.1	63.1	75	55.0	2	9	135	0.00	29.670 
16:45	63.1	63.1	63.1	76	55.4	2	11	112	0.00	29.670 
16:50	63.1	63.1	63.1	75	55.0	3	6	112	0.00	29.666 
16:55	63.2	63.2	63.2	75	55.1	3	6	112	0.00	29.662 
17:00	63.2	63.2	63.2	75	55.1	3	6	90	0.00	29.659 
17:05	63.2	63.2	63.2	74	54.8	3	10	112	0.00	29.663 
17:10	63.4	63.4	63.4	74	55.0	3	10	112	0.00	29.658 
17:15	63.5	63.5	63.5	73	54.7	3	10	90	0.00	29.656 
17:20	63.5	63.5	63.5	72	54.3	2	8	112	0.00	29.653 
17:25	63.4	63.4	63.4	72	54.2	1	5	22	0.00	29.652 
17:30	63.4	63.4	63.4	71	53.8	1	5	112	0.00	29.645 
17:35	63.5	63.5	63.5	71	53.9	1	5	135	0.00	29.646 
17:40	63.4	63.4	63.4	70	53.4	2	5	248	0.00	29.652 
17:45	63.5	63.5	63.5	69	53.1	1	5	248	0.00	29.651 
17:50	63.7	63.7	63.7	68	52.9	3	6	248	0.00	29.652 
17:55	63.7	63.7	63.7	67	52.5	2	9	248	0.00	29.653 
18:00	64.0	64.0	64.0	66	52.4	3	9	248	0.00	29.654 
18:05	64.2	64.2	64.2	66	52.6	2	6	248	0.00	29.656 
18:10	64.2	64.2	64.2	65	52.2	2	8	248	0.00	29.654 
18:15	64.0	64.0	64.0	66	52.4	2	7	248	0.00	29.654 
18:20	63.9	63.9	63.9	66	52.3	2	7	248	0.00	29.655 
18:25	63.9	63.9	63.9	65	51.9	3	9	248	0.00	29.655 
18:30	63.7	63.7	63.7	66	52.1	2	9	22	0.00	29.654 
18:35	63.7	63.7	63.7	67	52.5	3	7	270	0.00	29.655 
18:40	63.7	63.7	63.7	67	52.5	2	7	270	0.00	29.655 
18:45	63.5	63.5	63.5	68	52.7	3	7	248	0.00	29.652 
18:50	63.2	63.2	63.2	69	52.9	2	6	248	0.00	29.648 
18:55	63.1	63.1	63.1	70	53.2	2	7	248	0.00	29.644 
19:00	62.9	62.9	62.9	72	53.7	2	6	248	0.00	29.643 
19:05	62.6	62.6	62.6	73	53.8	2	5	248	0.00	29.640 
19:10	62.4	62.4	62.4	73	53.6	2	5	202	0.00	29.642 
19:15	62.3	62.3	62.3	74	53.9	2	6	248	0.00	29.640 
19:20	62.0	62.0	62.0	75	54.0	2	5	248	0.00	29.639 
19:25	62.0	62.0	62.0	75	54.0	2	5	248	0.00	29.639 
19:30	61.8	61.8	61.8	76	54.1	2	5	270	0.00	29.639 
19:35	61.6	61.6	61.6	76	54.0	1	5	248	0.00	29.637 
19:40	61.6	61.6	61.6	77	54.3	2	5	45	0.00	29.635 
19:45	61.5	61.5	61.5	77	54.2	2	6	225	0.00	29.635 
19:50	61.6	61.6	61.6	76	54.0	3	6	248	0.00	29.630 
19:55	61.6	61.6	61.6	77	54.3	2	8	248	0.00	29.633 
20:00	61.6	61.6	61.6	77	54.3	2	8	248	0.00	29.637 
20:05	61.5	61.5	61.5	77	54.2	2	7	248	0.00	29.633 
20:10	61.5	61.5	61.5	77	54.2	3	9	248	0.00	29.635 
20:15	61.3	61.3	61.3	78	54.4	2	9	248	0.00	29.635 
20:20	61.2	61.2	61.2	78	54.3	2	8	248	0.00	29.634 
20:25	61.2	61.2	61.2	78	54.3	3	9	248	0.00	29.635 
20:30	61.2	61.2	61.2	78	54.3	3	7	248	0.00	29.627 
20:35	61.2	61.2	61.2	79	54.6	2	6	248	0.00	29.624 
20:40	61.0	61.0	61.0	79	54.4	2	6	248	0.00	29.623 
20:45	60.9	60.9	60.9	79	54.3	3	7	248	0.00	29.621 
20:50	60.9	60.9	60.9	79	54.3	3	7	248	0.00	29.619 
20:55	60.9	60.9	60.9	79	54.3	3	6	248	0.00	29.620 
21:00	60.7	60.7	60.7	79	54.1	3	6	248	0.00	29.619 
21:05	60.5	60.5	60.5	79	54.0	3	7	248	0.00	29.611 
21:10	60.5	60.5	60.5	80	54.3	4	10	248	0.00	29.610 
21:15	60.5	60.5	60.5	79	54.0	4	10	248	0.00	29.609 
21:20	60.5	60.5	60.5	80	54.3	2	6	248	0.00	29.609 
21:25	60.4	60.4	60.4	80	54.2	3	6	248	0.00	29.607 
21:30	60.4	60.4	60.4	80	54.2	4	7	248	0.00	29.608 
21:35	60.4	60.4	60.4	80	54.2	3	10	248	0.00	29.608 
21:40	60.4	60.4	60.4	80	54.2	4	11	248	0.00	29.604 
21:45	60.4	60.4	60.4	80	54.2	4	10	248	0.00	29.603 
21:50	60.4	60.4	60.4	80	54.2	3	7	248	0.00	29.599 
21:55	60.4	60.4	60.4	80	54.2	5	11	270	0.00	29.594 
22:00	60.4	60.4	60.4	80	54.2	3	9	248	0.00	29.593 
22:05	60.4	60.4	60.4	81	54.5	5	14	248	0.01	29.588 
22:10	60.4	60.4	60.4	81	54.5	4	7	270	0.00	29.583 
22:15	60.4	60.4	60.4	81	54.5	3	8	248	0.00	29.584 
22:20	60.4	60.4	60.4	81	54.5	4	13	270	0.00	29.583 
22:25	60.4	60.4	60.4	81	54.5	4	9	270	0.00	29.584 
22:30	60.2	60.2	60.2	81	54.3	4	12	270	0.00	29.586 
22:35	60.2	60.2	60.2	81	54.3	4	10	248	0.00	29.587 
22:40	60.1	60.1	60.1	82	54.6	4	12	270	0.00	29.587 
22:45	59.9	59.9	59.9	82	54.4	3	8	248	0.00	29.588 
22:50	59.6	59.6	59.6	83	54.4	3	10	270	0.00	29.587 
22:55	59.5	59.5	59.5	83	54.3	3	7	270	0.00	29.586 
23:00	59.5	59.5	59.5	84	54.7	2	7	270	0.00	29.586 
23:05	59.5	59.5	59.5	84	54.7	3	7	270	0.00	29.583 
23:10	59.5	59.5	59.5	84	54.7	3	6	270	0.00	29.586 
23:15	59.6	59.6	59.6	83	54.4	3	9	270	0.00	29.586 
23:20	59.6	59.6	59.6	83	54.4	3	6	270	0.00	29.586 
23:25	59.6	59.6	59.6	82	54.1	4	9	270	0.00	29.586 
23:30	59.6	59.6	59.6	81	53.8	3	7	270	0.00	29.588 
23:35	59.6	59.6	59.6	80	53.4	4	7	270	0.00	29.588 
23:40	59.5	59.5	59.5	80	53.3	4	9	270	0.00	29.589 
23:45	59.2	59.2	59.2	79	52.7	5	12	270	0.00	29.589 
23:50	59.0	59.0	59.0	78	52.1	5	12	270	0.00	29.589 
23:55	58.7	58.7	58.7	79	52.2	4	10	270	0.00	29.590 

CoCoRaHS
IN-AL-39
A2 Web Hosting
Creative Commons License
GoDaddy
Look for:

loaded 2017-10-18 22:20:55 • last modified 2010-11-18 10:43:29
Privacy PolicyDisclaimer
• wx.awcolley.com is powered by PmWiki v.2002016 •
• all content (unless otherwise noted) © 2017 A W Colley